Terminal Aerodrome Forecast
Issued by NWS

Home | Current Version | Previous Version | Text Only | Print | Product List | Glossary On
Versions: 1 2 3 4 5 6 7 8 9 10 11 12 13 14 15 16 17
616
FTUS42 KTAE 241225 AAA
TAFECP
TAF AMD
KECP 241225Z 2412/2512 21007KT P6SM SCT050 BKN100
      TEMPO 2414/2416 2SM TSRA BKN025CB
     FM241600 24007KT P6SM VCTS BKN050CB
     FM242000 24007KT P6SM BKN050
     FM250200 22003KT P6SM SCT050 BKN250=

USA.gov is the U.S. government's official web portal to all federal, state and local government web resources and services.